sensor_id;sensor_type;location;lat;lon;timestamp;P1;durP1;ratioP1;P2;durP2;ratioP2
41275;SDS011;27010;47.718;12.912;2023-06-22T00:01:21;8.32;;;6.18;;
41275;SDS011;27010;47.718;12.912;2023-06-22T00:04:26;7.82;;;5.50;;
41275;SDS011;27010;47.718;12.912;2023-06-22T00:07:28;11.48;;;6.57;;
41275;SDS011;27010;47.718;12.912;2023-06-22T00:10:30;9.17;;;6.37;;
41275;SDS011;27010;47.718;12.912;2023-06-22T00:13:33;9.83;;;6.17;;
41275;SDS011;27010;47.718;12.912;2023-06-22T00:16:35;9.43;;;5.83;;
41275;SDS011;27010;47.718;12.912;2023-06-22T00:19:37;10.90;;;6.17;;
41275;SDS011;27010;47.718;12.912;2023-06-22T00:22:42;10.07;;;6.10;;
41275;SDS011;27010;47.718;12.912;2023-06-22T00:25:44;13.47;;;6.63;;
41275;SDS011;27010;47.718;12.912;2023-06-22T00:28:47;8.00;;;6.03;;
41275;SDS011;27010;47.718;12.912;2023-06-22T00:31:49;11.57;;;5.83;;
41275;SDS011;27010;47.718;12.912;2023-06-22T00:34:51;8.87;;;5.20;;
41275;SDS011;27010;47.718;12.912;2023-06-22T00:37:53;12.57;;;6.00;;
41275;SDS011;27010;47.718;12.912;2023-06-22T00:41:02;11.50;;;5.72;;
41275;SDS011;27010;47.718;12.912;2023-06-22T00:44:04;11.18;;;5.68;;
41275;SDS011;27010;47.718;12.912;2023-06-22T00:47:06;11.57;;;6.20;;
41275;SDS011;27010;47.718;12.912;2023-06-22T00:50:08;9.43;;;5.43;;
41275;SDS011;27010;47.718;12.912;2023-06-22T00:53:14;8.55;;;5.55;;
41275;SDS011;27010;47.718;12.912;2023-06-22T00:56:19;10.55;;;6.63;;
41275;SDS011;27010;47.718;12.912;2023-06-22T00:59:21;7.65;;;5.38;;
41275;SDS011;27010;47.718;12.912;2023-06-22T01:02:23;12.17;;;6.03;;
41275;SDS011;27010;47.718;12.912;2023-06-22T01:05:25;11.87;;;5.53;;
41275;SDS011;27010;47.718;12.912;2023-06-22T01:08:34;12.17;;;5.93;;
41275;SDS011;27010;47.718;12.912;2023-06-22T01:11:40;11.03;;;5.37;;
41275;SDS011;27010;47.718;12.912;2023-06-22T01:14:51;10.63;;;4.90;;
41275;SDS011;27010;47.718;12.912;2023-06-22T01:17:57;8.63;;;5.57;;
41275;SDS011;27010;47.718;12.912;2023-06-22T01:21:00;9.57;;;6.37;;
41275;SDS011;27010;47.718;12.912;2023-06-22T01:24:22;10.40;;;5.60;;
41275;SDS011;27010;47.718;12.912;2023-06-22T01:27:36;7.97;;;5.30;;
41275;SDS011;27010;47.718;12.912;2023-06-22T01:30:47;10.73;;;6.03;;
41275;SDS011;27010;47.718;12.912;2023-06-22T01:33:52;10.27;;;6.10;;
41275;SDS011;27010;47.718;12.912;2023-06-22T01:36:56;9.13;;;5.70;;
41275;SDS011;27010;47.718;12.912;2023-06-22T01:40:01;10.40;;;5.17;;
41275;SDS011;27010;47.718;12.912;2023-06-22T01:43:05;8.93;;;5.87;;
41275;SDS011;27010;47.718;12.912;2023-06-22T01:46:07;8.23;;;5.80;;
41275;SDS011;27010;47.718;12.912;2023-06-22T01:49:10;9.80;;;5.78;;
41275;SDS011;27010;47.718;12.912;2023-06-22T01:52:12;12.63;;;5.57;;
41275;SDS011;27010;47.718;12.912;2023-06-22T01:55:14;10.00;;;5.17;;
41275;SDS011;27010;47.718;12.912;2023-06-22T01:58:16;12.87;;;5.17;;
41275;SDS011;27010;47.718;12.912;2023-06-22T02:01:20;8.27;;;5.00;;
41275;SDS011;27010;47.718;12.912;2023-06-22T02:04:27;6.67;;;5.20;;
41275;SDS011;27010;47.718;12.912;2023-06-22T02:07:56;7.33;;;5.07;;
41275;SDS011;27010;47.718;12.912;2023-06-22T02:11:04;7.93;;;5.30;;
41275;SDS011;27010;47.718;12.912;2023-06-22T02:14:07;11.33;;;5.70;;
41275;SDS011;27010;47.718;12.912;2023-06-22T02:17:10;10.83;;;4.97;;
41275;SDS011;27010;47.718;12.912;2023-06-22T02:20:15;13.33;;;5.60;;
41275;SDS011;27010;47.718;12.912;2023-06-22T02:23:17;9.30;;;6.07;;
41275;SDS011;27010;47.718;12.912;2023-06-22T02:26:19;9.53;;;5.10;;
41275;SDS011;27010;47.718;12.912;2023-06-22T02:29:21;13.53;;;5.57;;
41275;SDS011;27010;47.718;12.912;2023-06-22T02:32:23;7.77;;;4.60;;
41275;SDS011;27010;47.718;12.912;2023-06-22T02:35:26;10.53;;;4.57;;
41275;SDS011;27010;47.718;12.912;2023-06-22T02:38:33;9.57;;;5.47;;
41275;SDS011;27010;47.718;12.912;2023-06-22T02:41:36;9.47;;;4.87;;
41275;SDS011;27010;47.718;12.912;2023-06-22T02:44:38;13.20;;;5.70;;
41275;SDS011;27010;47.718;12.912;2023-06-22T02:47:40;13.23;;;4.73;;
41275;SDS011;27010;47.718;12.912;2023-06-22T02:50:42;12.60;;;5.00;;
41275;SDS011;27010;47.718;12.912;2023-06-22T02:53:44;11.80;;;4.80;;
41275;SDS011;27010;47.718;12.912;2023-06-22T02:56:47;11.07;;;4.53;;
41275;SDS011;27010;47.718;12.912;2023-06-22T02:59:49;8.87;;;4.57;;
41275;SDS011;27010;47.718;12.912;2023-06-22T03:02:52;11.40;;;5.00;;
41275;SDS011;27010;47.718;12.912;2023-06-22T03:05:54;11.07;;;4.80;;
41275;SDS011;27010;47.718;12.912;2023-06-22T03:08:59;12.73;;;5.07;;
41275;SDS011;27010;47.718;12.912;2023-06-22T03:12:03;11.03;;;4.80;;
41275;SDS011;27010;47.718;12.912;2023-06-22T03:15:08;9.70;;;4.80;;
41275;SDS011;27010;47.718;12.912;2023-06-22T03:18:11;9.93;;;4.63;;
41275;SDS011;27010;47.718;12.912;2023-06-22T03:21:16;9.67;;;5.00;;
41275;SDS011;27010;47.718;12.912;2023-06-22T03:24:18;7.93;;;4.97;;
41275;SDS011;27010;47.718;12.912;2023-06-22T03:27:21;11.10;;;5.13;;
41275;SDS011;27010;47.718;12.912;2023-06-22T03:30:23;8.07;;;4.07;;
41275;SDS011;27010;47.718;12.912;2023-06-22T03:33:24;12.47;;;4.40;;
41275;SDS011;27010;47.718;12.912;2023-06-22T03:36:27;10.03;;;5.33;;
41275;SDS011;27010;47.718;12.912;2023-06-22T03:39:29;6.53;;;4.40;;
41275;SDS011;27010;47.718;12.912;2023-06-22T03:42:33;7.87;;;4.50;;
41275;SDS011;27010;47.718;12.912;2023-06-22T03:45:38;13.40;;;4.73;;
41275;SDS011;27010;47.718;12.912;2023-06-22T03:48:42;10.63;;;4.43;;
41275;SDS011;27010;47.718;12.912;2023-06-22T03:51:44;11.50;;;4.57;;
41275;SDS011;27010;47.718;12.912;2023-06-22T03:54:46;10.07;;;4.30;;
41275;SDS011;27010;47.718;12.912;2023-06-22T03:57:48;8.40;;;4.87;;
41275;SDS011;27010;47.718;12.912;2023-06-22T04:00:51;12.33;;;4.43;;
41275;SDS011;27010;47.718;12.912;2023-06-22T04:03:54;10.47;;;4.30;;
41275;SDS011;27010;47.718;12.912;2023-06-22T04:06:56;11.73;;;4.40;;
41275;SDS011;27010;47.718;12.912;2023-06-22T04:09:58;12.47;;;4.70;;
41275;SDS011;27010;47.718;12.912;2023-06-22T04:13:00;8.10;;;4.03;;
41275;SDS011;27010;47.718;12.912;2023-06-22T04:16:02;13.27;;;5.30;;
41275;SDS011;27010;47.718;12.912;2023-06-22T04:19:04;8.60;;;4.37;;
41275;SDS011;27010;47.718;12.912;2023-06-22T04:22:06;10.83;;;4.47;;
41275;SDS011;27010;47.718;12.912;2023-06-22T04:25:09;8.63;;;4.70;;
41275;SDS011;27010;47.718;12.912;2023-06-22T04:28:11;9.00;;;4.47;;
41275;SDS011;27010;47.718;12.912;2023-06-22T04:31:15;9.80;;;4.87;;
41275;SDS011;27010;47.718;12.912;2023-06-22T04:34:17;8.43;;;4.90;;
41275;SDS011;27010;47.718;12.912;2023-06-22T04:37:20;8.67;;;3.90;;
41275;SDS011;27010;47.718;12.912;2023-06-22T04:40:24;7.27;;;4.23;;
41275;SDS011;27010;47.718;12.912;2023-06-22T04:43:27;11.00;;;4.77;;
41275;SDS011;27010;47.718;12.912;2023-06-22T04:46:32;11.07;;;4.83;;
41275;SDS011;27010;47.718;12.912;2023-06-22T04:49:40;9.20;;;4.00;;
41275;SDS011;27010;47.718;12.912;2023-06-22T04:52:44;11.30;;;4.83;;
41275;SDS011;27010;47.718;12.912;2023-06-22T04:55:47;12.80;;;4.20;;
41275;SDS011;27010;47.718;12.912;2023-06-22T04:58:50;9.20;;;4.23;;
41275;SDS011;27010;47.718;12.912;2023-06-22T05:01:53;13.43;;;4.88;;
41275;SDS011;27010;47.718;12.912;2023-06-22T05:04:56;11.45;;;4.10;;
41275;SDS011;27010;47.718;12.912;2023-06-22T05:08:00;14.03;;;4.63;;
41275;SDS011;27010;47.718;12.912;2023-06-22T05:11:02;15.93;;;4.57;;
41275;SDS011;27010;47.718;12.912;2023-06-22T05:14:06;11.13;;;4.65;;
41275;SDS011;27010;47.718;12.912;2023-06-22T05:17:09;10.20;;;4.25;;
41275;SDS011;27010;47.718;12.912;2023-06-22T05:20:16;8.77;;;4.20;;
41275;SDS011;27010;47.718;12.912;2023-06-22T05:23:20;10.68;;;4.40;;
41275;SDS011;27010;47.718;12.912;2023-06-22T05:26:22;10.82;;;4.22;;
41275;SDS011;27010;47.718;12.912;2023-06-22T05:29:24;7.47;;;3.92;;
41275;SDS011;27010;47.718;12.912;2023-06-22T05:32:26;11.40;;;4.03;;
41275;SDS011;27010;47.718;12.912;2023-06-22T05:35:28;10.00;;;3.88;;
41275;SDS011;27010;47.718;12.912;2023-06-22T05:38:31;12.40;;;4.55;;
41275;SDS011;27010;47.718;12.912;2023-06-22T05:41:33;7.68;;;3.97;;
41275;SDS011;27010;47.718;12.912;2023-06-22T05:44:35;12.57;;;4.30;;
41275;SDS011;27010;47.718;12.912;2023-06-22T05:47:38;14.50;;;5.25;;
41275;SDS011;27010;47.718;12.912;2023-06-22T05:50:41;7.57;;;4.40;;
41275;SDS011;27010;47.718;12.912;2023-06-22T05:53:44;10.95;;;5.07;;
41275;SDS011;27010;47.718;12.912;2023-06-22T05:56:48;11.15;;;4.10;;
41275;SDS011;27010;47.718;12.912;2023-06-22T05:59:50;10.88;;;4.00;;
41275;SDS011;27010;47.718;12.912;2023-06-22T06:02:53;9.82;;;4.72;;
41275;SDS011;27010;47.718;12.912;2023-06-22T06:05:55;12.38;;;4.97;;
41275;SDS011;27010;47.718;12.912;2023-06-22T06:08:58;13.63;;;5.00;;
41275;SDS011;27010;47.718;12.912;2023-06-22T06:12:01;12.98;;;4.40;;
41275;SDS011;27010;47.718;12.912;2023-06-22T06:15:05;8.85;;;4.28;;
41275;SDS011;27010;47.718;12.912;2023-06-22T06:18:11;10.15;;;4.30;;
41275;SDS011;27010;47.718;12.912;2023-06-22T06:21:14;10.02;;;4.65;;
41275;SDS011;27010;47.718;12.912;2023-06-22T06:24:16;10.07;;;4.30;;
41275;SDS011;27010;47.718;12.912;2023-06-22T06:27:18;8.85;;;4.43;;
41275;SDS011;27010;47.718;12.912;2023-06-22T06:30:20;12.20;;;4.80;;
41275;SDS011;27010;47.718;12.912;2023-06-22T06:33:24;8.90;;;4.50;;
41275;SDS011;27010;47.718;12.912;2023-06-22T06:36:26;15.73;;;4.55;;
41275;SDS011;27010;47.718;12.912;2023-06-22T06:39:28;11.38;;;4.80;;
41275;SDS011;27010;47.718;12.912;2023-06-22T06:42:30;11.38;;;4.75;;
41275;SDS011;27010;47.718;12.912;2023-06-22T06:45:33;13.65;;;4.50;;
41275;SDS011;27010;47.718;12.912;2023-06-22T06:48:36;10.75;;;3.80;;
41275;SDS011;27010;47.718;12.912;2023-06-22T06:51:39;10.55;;;4.50;;
41275;SDS011;27010;47.718;12.912;2023-06-22T06:54:41;10.77;;;4.43;;
41275;SDS011;27010;47.718;12.912;2023-06-22T06:57:43;14.60;;;4.55;;
41275;SDS011;27010;47.718;12.912;2023-06-22T07:00:46;12.18;;;4.75;;
41275;SDS011;27010;47.718;12.912;2023-06-22T07:03:48;13.98;;;4.78;;
41275;SDS011;27010;47.718;12.912;2023-06-22T07:06:51;10.35;;;4.40;;
41275;SDS011;27010;47.718;12.912;2023-06-22T07:09:53;15.23;;;4.70;;
41275;SDS011;27010;47.718;12.912;2023-06-22T07:12:55;12.18;;;4.40;;
41275;SDS011;27010;47.718;12.912;2023-06-22T07:15:59;13.95;;;5.00;;
41275;SDS011;27010;47.718;12.912;2023-06-22T07:19:01;14.40;;;5.00;;
41275;SDS011;27010;47.718;12.912;2023-06-22T07:22:03;12.07;;;4.78;;
41275;SDS011;27010;47.718;12.912;2023-06-22T07:25:05;17.63;;;4.82;;
41275;SDS011;27010;47.718;12.912;2023-06-22T07:28:11;18.13;;;5.28;;
41275;SDS011;27010;47.718;12.912;2023-06-22T07:31:13;14.40;;;5.47;;
41275;SDS011;27010;47.718;12.912;2023-06-22T07:34:16;9.95;;;4.78;;
41275;SDS011;27010;47.718;12.912;2023-06-22T07:37:18;12.07;;;5.70;;
41275;SDS011;27010;47.718;12.912;2023-06-22T07:40:20;11.60;;;4.72;;
41275;SDS011;27010;47.718;12.912;2023-06-22T07:43:22;15.60;;;5.45;;
41275;SDS011;27010;47.718;12.912;2023-06-22T07:46:24;15.73;;;5.13;;
41275;SDS011;27010;47.718;12.912;2023-06-22T07:49:27;17.67;;;5.63;;
41275;SDS011;27010;47.718;12.912;2023-06-22T07:52:31;17.65;;;5.45;;
41275;SDS011;27010;47.718;12.912;2023-06-22T07:55:34;15.30;;;5.03;;
41275;SDS011;27010;47.718;12.912;2023-06-22T07:58:36;13.40;;;5.00;;
41275;SDS011;27010;47.718;12.912;2023-06-22T08:01:38;15.68;;;5.47;;
41275;SDS011;27010;47.718;12.912;2023-06-22T08:04:40;16.75;;;5.03;;
41275;SDS011;27010;47.718;12.912;2023-06-22T08:07:43;14.63;;;5.45;;
41275;SDS011;27010;47.718;12.912;2023-06-22T08:10:49;20.10;;;5.72;;
41275;SDS011;27010;47.718;12.912;2023-06-22T08:13:51;14.98;;;4.60;;
41275;SDS011;27010;47.718;12.912;2023-06-22T08:16:53;14.55;;;4.93;;
41275;SDS011;27010;47.718;12.912;2023-06-22T08:19:55;13.05;;;4.97;;
41275;SDS011;27010;47.718;12.912;2023-06-22T08:22:58;16.27;;;4.85;;
41275;SDS011;27010;47.718;12.912;2023-06-22T08:26:06;14.02;;;5.25;;
41275;SDS011;27010;47.718;12.912;2023-06-22T08:29:08;15.23;;;5.30;;
41275;SDS011;27010;47.718;12.912;2023-06-22T08:32:11;16.92;;;5.45;;
41275;SDS011;27010;47.718;12.912;2023-06-22T08:35:14;16.88;;;6.10;;
41275;SDS011;27010;47.718;12.912;2023-06-22T08:38:16;16.60;;;5.43;;
41275;SDS011;27010;47.718;12.912;2023-06-22T08:41:20;20.42;;;5.97;;
41275;SDS011;27010;47.718;12.912;2023-06-22T08:44:22;13.35;;;5.65;;
41275;SDS011;27010;47.718;12.912;2023-06-22T08:47:24;18.67;;;5.70;;
41275;SDS011;27010;47.718;12.912;2023-06-22T08:50:26;12.45;;;5.30;;
41275;SDS011;27010;47.718;12.912;2023-06-22T08:53:29;14.07;;;5.15;;
41275;SDS011;27010;47.718;12.912;2023-06-22T08:56:30;10.93;;;5.55;;
41275;SDS011;27010;47.718;12.912;2023-06-22T08:59:33;13.70;;;5.88;;
41275;SDS011;27010;47.718;12.912;2023-06-22T09:02:35;22.30;;;5.82;;
41275;SDS011;27010;47.718;12.912;2023-06-22T09:05:37;18.52;;;6.20;;
41275;SDS011;27010;47.718;12.912;2023-06-22T09:08:40;18.25;;;6.00;;
41275;SDS011;27010;47.718;12.912;2023-06-22T09:11:43;9.60;;;5.05;;
41275;SDS011;27010;47.718;12.912;2023-06-22T09:14:46;14.40;;;5.32;;
41275;SDS011;27010;47.718;12.912;2023-06-22T09:17:48;20.27;;;6.63;;
41275;SDS011;27010;47.718;12.912;2023-06-22T09:20:51;16.85;;;5.88;;
41275;SDS011;27010;47.718;12.912;2023-06-22T09:23:53;16.98;;;6.18;;
41275;SDS011;27010;47.718;12.912;2023-06-22T09:26:56;13.90;;;6.55;;
41275;SDS011;27010;47.718;12.912;2023-06-22T09:29:58;16.15;;;5.68;;
41275;SDS011;27010;47.718;12.912;2023-06-22T09:33:00;15.02;;;6.30;;
41275;SDS011;27010;47.718;12.912;2023-06-22T09:36:03;16.27;;;6.25;;
41275;SDS011;27010;47.718;12.912;2023-06-22T09:39:06;13.07;;;5.88;;
41275;SDS011;27010;47.718;12.912;2023-06-22T09:42:08;19.52;;;6.18;;
41275;SDS011;27010;47.718;12.912;2023-06-22T09:45:10;18.80;;;5.70;;
41275;SDS011;27010;47.718;12.912;2023-06-22T09:48:13;13.05;;;6.53;;
41275;SDS011;27010;47.718;12.912;2023-06-22T09:51:15;15.45;;;5.93;;
41275;SDS011;27010;47.718;12.912;2023-06-22T09:54:18;13.52;;;6.22;;
41275;SDS011;27010;47.718;12.912;2023-06-22T09:57:20;12.52;;;5.82;;
41275;SDS011;27010;47.718;12.912;2023-06-22T10:00:22;11.93;;;6.18;;
41275;SDS011;27010;47.718;12.912;2023-06-22T10:03:24;12.95;;;6.25;;
41275;SDS011;27010;47.718;12.912;2023-06-22T10:06:27;19.75;;;7.30;;
41275;SDS011;27010;47.718;12.912;2023-06-22T10:09:30;13.55;;;6.00;;
41275;SDS011;27010;47.718;12.912;2023-06-22T10:12:32;18.23;;;5.93;;
41275;SDS011;27010;47.718;12.912;2023-06-22T10:15:34;14.43;;;6.40;;
41275;SDS011;27010;47.718;12.912;2023-06-22T10:18:36;12.20;;;5.80;;
41275;SDS011;27010;47.718;12.912;2023-06-22T10:21:39;15.80;;;5.93;;
41275;SDS011;27010;47.718;12.912;2023-06-22T10:24:44;19.98;;;5.82;;
41275;SDS011;27010;47.718;12.912;2023-06-22T10:27:47;12.77;;;5.57;;
41275;SDS011;27010;47.718;12.912;2023-06-22T10:30:50;26.70;;;6.18;;
41275;SDS011;27010;47.718;12.912;2023-06-22T10:33:53;13.85;;;5.63;;
41275;SDS011;27010;47.718;12.912;2023-06-22T10:36:56;11.88;;;6.30;;
41275;SDS011;27010;47.718;12.912;2023-06-22T10:39:59;12.27;;;5.80;;
41275;SDS011;27010;47.718;12.912;2023-06-22T10:43:01;14.02;;;5.60;;
41275;SDS011;27010;47.718;12.912;2023-06-22T10:46:04;13.40;;;6.32;;
41275;SDS011;27010;47.718;12.912;2023-06-22T10:49:05;13.85;;;5.95;;
41275;SDS011;27010;47.718;12.912;2023-06-22T10:52:08;17.48;;;5.55;;
41275;SDS011;27010;47.718;12.912;2023-06-22T10:55:10;17.83;;;5.78;;
41275;SDS011;27010;47.718;12.912;2023-06-22T10:58:13;15.15;;;5.65;;
41275;SDS011;27010;47.718;12.912;2023-06-22T11:01:15;19.92;;;6.18;;
41275;SDS011;27010;47.718;12.912;2023-06-22T11:04:35;15.43;;;5.70;;
41275;SDS011;27010;47.718;12.912;2023-06-22T11:07:41;14.98;;;5.75;;
41275;SDS011;27010;47.718;12.912;2023-06-22T11:10:45;15.68;;;5.40;;
41275;SDS011;27010;47.718;12.912;2023-06-22T11:13:46;13.77;;;5.40;;
41275;SDS011;27010;47.718;12.912;2023-06-22T11:16:49;17.33;;;6.05;;
41275;SDS011;27010;47.718;12.912;2023-06-22T11:19:51;17.17;;;5.93;;
41275;SDS011;27010;47.718;12.912;2023-06-22T11:22:53;14.98;;;6.28;;
41275;SDS011;27010;47.718;12.912;2023-06-22T11:25:55;25.85;;;6.18;;
41275;SDS011;27010;47.718;12.912;2023-06-22T11:28:57;14.45;;;5.40;;
41275;SDS011;27010;47.718;12.912;2023-06-22T11:32:01;19.60;;;5.90;;
41275;SDS011;27010;47.718;12.912;2023-06-22T11:35:03;19.75;;;6.30;;
41275;SDS011;27010;47.718;12.912;2023-06-22T11:38:06;16.50;;;5.95;;
41275;SDS011;27010;47.718;12.912;2023-06-22T11:41:09;20.70;;;6.60;;
41275;SDS011;27010;47.718;12.912;2023-06-22T11:44:12;16.95;;;5.80;;
41275;SDS011;27010;47.718;12.912;2023-06-22T11:47:14;13.18;;;5.38;;
41275;SDS011;27010;47.718;12.912;2023-06-22T11:50:16;15.43;;;6.10;;
41275;SDS011;27010;47.718;12.912;2023-06-22T11:53:18;15.35;;;6.28;;
41275;SDS011;27010;47.718;12.912;2023-06-22T11:56:20;19.08;;;6.38;;
41275;SDS011;27010;47.718;12.912;2023-06-22T11:59:22;15.43;;;6.20;;
41275;SDS011;27010;47.718;12.912;2023-06-22T12:02:25;16.90;;;6.47;;
41275;SDS011;27010;47.718;12.912;2023-06-22T12:05:27;12.35;;;5.85;;
41275;SDS011;27010;47.718;12.912;2023-06-22T12:08:29;14.45;;;6.18;;
41275;SDS011;27010;47.718;12.912;2023-06-22T12:11:31;19.73;;;6.15;;
41275;SDS011;27010;47.718;12.912;2023-06-22T12:14:33;20.25;;;6.85;;
41275;SDS011;27010;47.718;12.912;2023-06-22T12:17:35;18.20;;;6.53;;
41275;SDS011;27010;47.718;12.912;2023-06-22T12:20:38;23.30;;;7.25;;
41275;SDS011;27010;47.718;12.912;2023-06-22T12:23:40;14.32;;;6.18;;
41275;SDS011;27010;47.718;12.912;2023-06-22T12:26:42;19.05;;;6.28;;
41275;SDS011;27010;47.718;12.912;2023-06-22T12:29:45;15.40;;;6.85;;
41275;SDS011;27010;47.718;12.912;2023-06-22T12:32:47;14.57;;;6.10;;
41275;SDS011;27010;47.718;12.912;2023-06-22T12:35:51;15.80;;;6.20;;
41275;SDS011;27010;47.718;12.912;2023-06-22T12:38:53;16.65;;;6.22;;
41275;SDS011;27010;47.718;12.912;2023-06-22T12:41:56;14.93;;;7.05;;
41275;SDS011;27010;47.718;12.912;2023-06-22T12:44:59;17.35;;;7.15;;
41275;SDS011;27010;47.718;12.912;2023-06-22T12:48:01;18.58;;;6.97;;
41275;SDS011;27010;47.718;12.912;2023-06-22T12:51:03;21.42;;;7.03;;
41275;SDS011;27010;47.718;12.912;2023-06-22T12:54:05;14.15;;;6.68;;
41275;SDS011;27010;47.718;12.912;2023-06-22T12:57:07;19.50;;;6.82;;
41275;SDS011;27010;47.718;12.912;2023-06-22T13:00:10;13.20;;;6.63;;
41275;SDS011;27010;47.718;12.912;2023-06-22T13:03:13;14.27;;;7.40;;
41275;SDS011;27010;47.718;12.912;2023-06-22T13:06:15;14.45;;;6.93;;
41275;SDS011;27010;47.718;12.912;2023-06-22T13:09:17;21.50;;;7.40;;
41275;SDS011;27010;47.718;12.912;2023-06-22T13:12:22;17.85;;;6.85;;
41275;SDS011;27010;47.718;12.912;2023-06-22T13:15:24;14.70;;;6.30;;
41275;SDS011;27010;47.718;12.912;2023-06-22T13:18:26;18.33;;;7.55;;
41275;SDS011;27010;47.718;12.912;2023-06-22T13:21:29;20.77;;;7.07;;
41275;SDS011;27010;47.718;12.912;2023-06-22T13:24:32;18.15;;;6.85;;
41275;SDS011;27010;47.718;12.912;2023-06-22T13:27:34;17.42;;;6.70;;
41275;SDS011;27010;47.718;12.912;2023-06-22T13:30:36;16.10;;;6.32;;
41275;SDS011;27010;47.718;12.912;2023-06-22T13:33:38;14.70;;;6.18;;
41275;SDS011;27010;47.718;12.912;2023-06-22T13:36:42;16.42;;;6.57;;
41275;SDS011;27010;47.718;12.912;2023-06-22T13:39:44;11.82;;;6.47;;
41275;SDS011;27010;47.718;12.912;2023-06-22T13:42:46;18.88;;;6.68;;
41275;SDS011;27010;47.718;12.912;2023-06-22T13:45:48;13.93;;;6.50;;
41275;SDS011;27010;47.718;12.912;2023-06-22T13:48:50;23.33;;;7.47;;
41275;SDS011;27010;47.718;12.912;2023-06-22T13:51:57;17.10;;;6.38;;
41275;SDS011;27010;47.718;12.912;2023-06-22T13:55:00;21.33;;;6.65;;
41275;SDS011;27010;47.718;12.912;2023-06-22T13:58:02;16.38;;;6.93;;
41275;SDS011;27010;47.718;12.912;2023-06-22T14:01:04;15.68;;;6.63;;
41275;SDS011;27010;47.718;12.912;2023-06-22T14:04:06;15.82;;;7.30;;
41275;SDS011;27010;47.718;12.912;2023-06-22T14:07:08;15.75;;;6.40;;
41275;SDS011;27010;47.718;12.912;2023-06-22T14:10:10;14.98;;;7.10;;
41275;SDS011;27010;47.718;12.912;2023-06-22T14:13:13;17.95;;;7.53;;
41275;SDS011;27010;47.718;12.912;2023-06-22T14:16:15;13.00;;;6.10;;
41275;SDS011;27010;47.718;12.912;2023-06-22T14:19:17;11.63;;;6.55;;
41275;SDS011;27010;47.718;12.912;2023-06-22T14:22:21;20.83;;;7.22;;
41275;SDS011;27010;47.718;12.912;2023-06-22T14:25:23;15.65;;;6.63;;
41275;SDS011;27010;47.718;12.912;2023-06-22T14:28:25;21.73;;;7.13;;
41275;SDS011;27010;47.718;12.912;2023-06-22T14:31:27;14.65;;;6.78;;
41275;SDS011;27010;47.718;12.912;2023-06-22T14:34:29;14.13;;;7.15;;
41275;SDS011;27010;47.718;12.912;2023-06-22T14:37:31;14.13;;;6.63;;
41275;SDS011;27010;47.718;12.912;2023-06-22T14:40:33;17.38;;;6.90;;
41275;SDS011;27010;47.718;12.912;2023-06-22T14:43:49;15.60;;;6.97;;
41275;SDS011;27010;47.718;12.912;2023-06-22T14:46:52;12.50;;;7.00;;
41275;SDS011;27010;47.718;12.912;2023-06-22T14:49:55;16.20;;;7.13;;
41275;SDS011;27010;47.718;12.912;2023-06-22T14:52:57;14.80;;;6.43;;
41275;SDS011;27010;47.718;12.912;2023-06-22T14:55:59;10.50;;;6.25;;
41275;SDS011;27010;47.718;12.912;2023-06-22T14:59:03;13.98;;;6.97;;
41275;SDS011;27010;47.718;12.912;2023-06-22T15:02:06;16.48;;;6.70;;
41275;SDS011;27010;47.718;12.912;2023-06-22T15:05:08;13.32;;;6.68;;
41275;SDS011;27010;47.718;12.912;2023-06-22T15:08:10;10.70;;;6.15;;
41275;SDS011;27010;47.718;12.912;2023-06-22T15:11:12;19.08;;;7.15;;
41275;SDS011;27010;47.718;12.912;2023-06-22T15:14:14;17.48;;;6.82;;
41275;SDS011;27010;47.718;12.912;2023-06-22T15:17:16;15.23;;;6.80;;
41275;SDS011;27010;47.718;12.912;2023-06-22T15:20:19;14.38;;;6.85;;
41275;SDS011;27010;47.718;12.912;2023-06-22T15:23:21;17.70;;;6.90;;
41275;SDS011;27010;47.718;12.912;2023-06-22T15:26:23;15.13;;;6.80;;
41275;SDS011;27010;47.718;12.912;2023-06-22T15:29:26;16.55;;;6.78;;
41275;SDS011;27010;47.718;12.912;2023-06-22T15:32:29;16.83;;;6.57;;
41275;SDS011;27010;47.718;12.912;2023-06-22T15:35:31;17.10;;;6.60;;
41275;SDS011;27010;47.718;12.912;2023-06-22T15:38:33;18.88;;;5.72;;
41275;SDS011;27010;47.718;12.912;2023-06-22T15:41:35;14.98;;;6.00;;
41275;SDS011;27010;47.718;12.912;2023-06-22T15:44:37;18.95;;;6.90;;
41275;SDS011;27010;47.718;12.912;2023-06-22T15:47:39;17.27;;;6.72;;
41275;SDS011;27010;47.718;12.912;2023-06-22T15:50:41;17.55;;;6.80;;
41275;SDS011;27010;47.718;12.912;2023-06-22T15:53:44;15.90;;;6.50;;
41275;SDS011;27010;47.718;12.912;2023-06-22T15:56:46;14.02;;;6.13;;
41275;SDS011;27010;47.718;12.912;2023-06-22T15:59:48;17.73;;;6.78;;
41275;SDS011;27010;47.718;12.912;2023-06-22T16:02:50;11.20;;;6.10;;
41275;SDS011;27010;47.718;12.912;2023-06-22T16:05:52;19.35;;;6.63;;
41275;SDS011;27010;47.718;12.912;2023-06-22T16:08:55;17.15;;;6.57;;
41275;SDS011;27010;47.718;12.912;2023-06-22T16:11:57;11.20;;;5.70;;
41275;SDS011;27010;47.718;12.912;2023-06-22T16:14:59;19.00;;;6.32;;
41275;SDS011;27010;47.718;12.912;2023-06-22T16:18:02;17.08;;;6.70;;
41275;SDS011;27010;47.718;12.912;2023-06-22T16:21:04;15.13;;;6.93;;
41275;SDS011;27010;47.718;12.912;2023-06-22T16:24:06;13.13;;;6.47;;
41275;SDS011;27010;47.718;12.912;2023-06-22T16:27:09;16.10;;;6.85;;
41275;SDS011;27010;47.718;12.912;2023-06-22T16:30:11;12.77;;;5.45;;
41275;SDS011;27010;47.718;12.912;2023-06-22T16:33:13;18.13;;;6.25;;
41275;SDS011;27010;47.718;12.912;2023-06-22T16:36:15;13.93;;;6.22;;
41275;SDS011;27010;47.718;12.912;2023-06-22T16:39:18;13.82;;;6.68;;
41275;SDS011;27010;47.718;12.912;2023-06-22T16:42:20;16.27;;;5.82;;
41275;SDS011;27010;47.718;12.912;2023-06-22T16:45:22;14.93;;;6.82;;
41275;SDS011;27010;47.718;12.912;2023-06-22T16:48:24;17.30;;;6.85;;
41275;SDS011;27010;47.718;12.912;2023-06-22T16:51:27;16.30;;;6.22;;
41275;SDS011;27010;47.718;12.912;2023-06-22T16:54:29;14.35;;;6.70;;
41275;SDS011;27010;47.718;12.912;2023-06-22T16:57:32;20.48;;;6.30;;
41275;SDS011;27010;47.718;12.912;2023-06-22T17:00:35;22.77;;;6.15;;
41275;SDS011;27010;47.718;12.912;2023-06-22T17:03:44;13.70;;;6.68;;
41275;SDS011;27010;47.718;12.912;2023-06-22T17:07:03;16.38;;;6.28;;
41275;SDS011;27010;47.718;12.912;2023-06-22T17:10:11;22.63;;;6.47;;
41275;SDS011;27010;47.718;12.912;2023-06-22T17:13:13;15.90;;;6.55;;
41275;SDS011;27010;47.718;12.912;2023-06-22T17:16:15;19.80;;;6.13;;
41275;SDS011;27010;47.718;12.912;2023-06-22T17:19:18;18.77;;;6.65;;
41275;SDS011;27010;47.718;12.912;2023-06-22T17:22:22;14.07;;;6.50;;
41275;SDS011;27010;47.718;12.912;2023-06-22T17:25:24;18.10;;;6.82;;
41275;SDS011;27010;47.718;12.912;2023-06-22T17:28:51;16.63;;;6.10;;
41275;SDS011;27010;47.718;12.912;2023-06-22T17:32:11;15.20;;;6.20;;
41275;SDS011;27010;47.718;12.912;2023-06-22T17:35:35;19.90;;;6.00;;
41275;SDS011;27010;47.718;12.912;2023-06-22T17:38:48;15.73;;;6.40;;
41275;SDS011;27010;47.718;12.912;2023-06-22T17:41:50;21.55;;;9.82;;
41275;SDS011;27010;47.718;12.912;2023-06-22T17:44:52;16.58;;;12.18;;
41275;SDS011;27010;47.718;12.912;2023-06-22T17:48:01;13.95;;;7.43;;
41275;SDS011;27010;47.718;12.912;2023-06-22T17:51:06;14.93;;;7.20;;
41275;SDS011;27010;47.718;12.912;2023-06-22T17:54:12;15.10;;;6.05;;